• Join FlightAware (Why Join?)
  • Login
  • US Flag 
05:20PM EST


 

Airport Tracker/Info


-or-


 

Live Flight TrackerFlight Track Log ✈ AAY956 ✈ 11-Aug-2014 ✈ KPGD - KIAG

Flight Track Log - Related Links

Times and Time Zones

All times are in EDT time to prevent confusion due to time zone crossing. See the AAY956 flight status page for this flight to view local times or setup timezone preferences in your user account.

Time Position Orientation Groundspeed Altitude Reporting Facility
EDT Latitude Longitude Course Direction KTS MPH feet Rate Location/Type
03:38PM 26.8869 -81.9928 74° East 165 190 1,600  Level Miami Center
03:39PM 26.9014 -81.9361 74° East 227 261 3,100 1,440 Climbing Miami Center
03:40PM 26.9811 -81.9361 360° North 274 315 4,600 1,920 Climbing Miami Center
03:41PM 27.0522 -81.9425 355° North 278 320 7,100 2,520 Climbing Miami Center
03:42PM 27.1319 -81.9472 357° North 284 327 9,900 2,040 Climbing Miami Center
03:43PM 27.2186 -81.9547 356° North 307 353 11,400 1,740 Climbing Miami Center
03:44PM 27.3456 -81.9639 356° North 377 434 13,600 2,100 Climbing Miami Center
03:45PM 27.4594 -81.9728 356° North 407 468 15,800 2,040 Climbing Miami Center
03:46PM 27.5767 -81.9817 356° North 421 484 17,900 2,700 Climbing Miami Center
03:47PM 27.7044 -81.9917 356° North 425 489 21,500 2,460 Climbing Miami Center
03:48PM 27.8158 -81.9967 358° North 398 458 23,000 1,260 Climbing Miami Center
03:49PM 27.9197 -82.0061 355° North 407 468 24,200 1,440 Climbing Miami Center
03:50PM 28.0297 -82.0489 341° North 417 480 26,000 1,620 Climbing Miami Center
03:51PM 28.1608 -82.1133 337° Northwest 424 488 27,600 1,020 Climbing Miami Center
03:52PM 28.2764 -82.1569 342° North 433 498 28,200 780 Climbing Miami Center
03:53PM 28.4047 -82.2078 341° North 452 520 29,300 1,260 Climbing Miami Center
03:54PM 28.5242 -82.2547 341° North 454 522 30,800 1,200 Climbing Miami Center
03:55PM 28.6428 -82.3006 341° North 453 521 31,900 540 Climbing Miami Center
03:56PM 28.7578 -82.3447 341° North 453 521 32,000  Climbing Miami Center
03:58PM 28.8736 -82.3911 341° North 445 512 32,000  Level Miami Center
03:59PM 29.0122 -82.4456 341° North 440 506 32,000  Level Miami Center
04:00PM 29.1286 -82.4914 341° North 441 507 32,000  Level Miami Center
04:01PM 29.2467 -82.5378 341° North 446 513 32,000 -60 Level Miami Center
04:02PM 29.3647 -82.5842 341° North 446 513 31,900  Descending Miami Center
04:03PM 29.4872 -82.6072 351° North 453 521 32,000 240 Climbing Miami Center
04:04PM 29.6356 -82.5964 North 445 512 32,500 420 Climbing Jacksonville Center
04:05PM 29.7608 -82.5886 North 445 512 32,900 240 Climbing Jacksonville Center
04:06PM 29.8861 -82.5811 North 445 512 33,000  Climbing Jacksonville Center
04:07PM 30.0136 -82.5758 North 445 512 33,000 -60 Level Jacksonville Center
04:08PM 30.1261 -82.5731 North 445 512 32,900  Descending Jacksonville Center
04:09PM 30.2494 -82.5681 North 440 506 33,000  Climbing Jacksonville Center
04:10PM 30.3850 -82.5531 North 440 506 33,000  Level Jacksonville Center
04:11PM 30.5125 -82.5358 North 440 506 33,000 -60 Level Jacksonville Center
04:12PM 30.6375 -82.5208 North 446 513 32,900  Descending Jacksonville Center
04:13PM 30.7608 -82.4889 13° North 446 513 33,000  Climbing Jacksonville Center
04:14PM 30.8817 -82.4375 20° North 446 513 33,000 -60 Level Jacksonville Center
04:15PM 31.0067 -82.3883 19° North 458 527 32,900  Descending Jacksonville Center
04:16PM 31.1256 -82.3417 19° North 458 527 33,000  Climbing Jacksonville Center
04:17PM 31.2486 -82.2947 18° North 458 527 33,000  Level Jacksonville Center
04:18PM 31.3694 -82.2453 19° North 458 527 33,000 -60 Level Jacksonville Center
04:19PM 31.4903 -82.1983 18° North 457 526 32,900  Descending Jacksonville Center
04:20PM 31.6111 -82.1508 19° North 449 517 33,000  Climbing Jacksonville Center
04:21PM 31.7214 -82.1086 18° North 454 522 33,000  Level Jacksonville Center
04:22PM 31.8528 -82.0536 20° North 454 522 33,000  Level Jacksonville Center
04:23PM 31.9756 -82.0036 19° North 454 522 33,000  Level Jacksonville Center
04:24PM 32.0839 -81.9608 18° North 459 528 33,000  Level Jacksonville Center
04:25PM 32.2169 -81.9056 19° North 459 528 33,000  Level Jacksonville Center
04:26PM 32.3378 -81.8575 19° North 449 517 33,000  Level Jacksonville Center
04:27PM 32.4503 -81.8314 11° North 443 510 33,000  Level Jacksonville Center
04:28PM 32.5856 -81.7978 12° North 459 528 33,000  Level Jacksonville Center
04:29PM 32.6981 -81.7694 12° North 459 528 33,000  Level Jacksonville Center
04:30PM 32.8211 -81.7431 10° North 452 520 33,000  Level Jacksonville Center
04:31PM 32.9439 -81.7119 12° North 447 514 33,000  Level Jacksonville Center
04:32PM 33.0667 -81.6856 10° North 447 514 33,000  Level Jacksonville Center
04:33PM 33.1939 -81.6589 10° North 453 521 33,000  Level Jacksonville Center
04:34PM 33.3167 -81.6275 12° North 453 521 33,000  Level Jacksonville Center
04:35PM 33.4436 -81.6006 10° North 453 521 33,000  Level Jacksonville Center
04:36PM 33.5667 -81.5714 11° North 453 521 33,000  Level Jacksonville Center
04:37PM 33.6936 -81.5419 11° North 453 521 33,000  Level Jacksonville Center
04:38PM 33.8164 -81.5128 11° North 448 516 33,000  Level Jacksonville Center
04:39PM 33.9536 -81.4806 11° North 455 524 33,000  Level Jacksonville Center
04:41PM 34.2131 -81.4189 11° North 450 518 33,000  Level Atlanta Center
04:42PM 34.3356 -81.3897 11° North 450 518 33,000  Level Atlanta Center
04:43PM 34.4497 -81.3636 11° North 456 525 33,000  Level Atlanta Center
04:44PM 34.5700 -81.3344 11° North 449 517 33,000  Level Atlanta Center
04:45PM 34.7072 -81.3022 11° North 449 517 33,000  Level Atlanta Center
04:46PM 34.8317 -81.2731 11° North 449 517 33,000  Level Atlanta Center
04:47PM 34.9542 -81.2461 10° North 449 517 33,000  Level Atlanta Center
04:48PM 35.0744 -81.2142 12° North 444 511 33,000  Level Atlanta Center
04:49PM 35.1989 -81.1869 10° North 444 511 33,000  Level Atlanta Center
04:50PM 35.3192 -81.1522 13° North 449 517 33,000  Level Atlanta Center
04:51PM 35.4436 -81.1200 12° North 444 511 33,000  Level Atlanta Center
04:52PM 35.5681 -81.0847 13° North 449 517 33,000  Level Atlanta Center
04:53PM 35.6986 -81.0544 11° North 462 532 33,000  Level Atlanta Center
04:54PM 35.8086 -81.0300 10° North 462 532 33,000  Level Atlanta Center
04:55PM 35.9331 -80.9997 11° North 462 532 33,000  Level Atlanta Center
04:56PM 36.0553 -80.9694 11° North 457 526 33,000  Level Atlanta Center
04:57PM 36.1797 -80.9392 11° North 457 526 33,000  Level Atlanta Center
04:58PM 36.3042 -80.9086 11° North 457 526 33,000  Level Atlanta Center
04:59PM 36.4283 -80.8778 11° North 457 526 33,000  Level Atlanta Center
05:00PM 36.5528 -80.8444 12° North 452 520 33,000  Level Atlanta Center
05:01PM 36.6769 -80.8136 11° North 447 514 33,000  Level Atlanta Center
05:03PM 36.9461 -80.7508 11° North 435 501 33,000  Level Washington Center
05:04PM 37.0708 -80.7175 12° North 458 527 33,000  Level Washington Center
05:05PM 37.1933 -80.6814 13° North 453 521 33,000  Level Washington Center
05:06PM 37.3161 -80.6400 15° North 453 521 33,000  Level Washington Center
05:07PM 37.4386 -80.6008 14° North 453 521 33,000  Level Washington Center
05:08PM 37.5636 -80.5567 16° North 453 521 33,000  Level Washington Center
05:09PM 37.6883 -80.5150 15° North 458 527 33,000  Level Washington Center
05:10PM 37.8111 -80.4731 15° North 458 527 33,000  Level Washington Center
05:11PM 37.9358 -80.4339 14° North 458 527 33,000  Level Washington Center
05:12PM 38.0628 -80.3894 15° North 463 533 33,000  Level Washington Center
05:13PM 38.1853 -80.3469 15° North 458 527 33,000  Level Washington Center
05:14PM 38.3122 -80.3022 15° North 463 533 33,000  Level Washington Center
05:15PM 38.4369 -80.2597 15° North 463 533 33,000  Level Washington Center
05:16PM 38.5639 -80.2144 16° North 463 533 33,000  Level Washington Center
05:18PM 38.8772 -80.0992 16° North 475 547 33,000  Level Cleveland Center
05:20PM 39.0067 -80.0869 North 468 539 33,000  Level Cleveland Center
05:21PM 39.1339 -80.0989 356° North 460 529 33,000  Level Cleveland Center
05:22PM 39.2614 -80.1069 357° North 460 529 33,000  Level Cleveland Center
05:23PM 39.4172 -80.0725 10° North 473 544 33,000  Level Cleveland Center
05:24PM 39.5475 -80.0394 11° North 475 547 33,000  Level Cleveland Center
05:25PM 39.6794 -80.0067 11° North 484 557 33,000  Level Cleveland Center
05:26PM 39.8114 -79.9728 11° North 485 558 33,000  Level Cleveland Center
05:27PM 39.9453 -79.9394 11° North 486 559 33,000  Level Cleveland Center
05:28PM 40.1047 -79.9000 11° North 489 563 33,000  Level Cleveland Center
05:29PM 40.2350 -79.8672 11° North 488 562 33,000  Level Cleveland Center
05:30PM 40.3631 -79.8350 11° North 480 552 33,000 -180 Level Cleveland Center
05:31PM 40.4908 -79.8031 11° North 476 548 32,700 -660 Descending Cleveland Center
05:32PM 40.6189 -79.7714 11° North 476 548 31,700 -1,020 Descending Cleveland Center
05:33PM 40.7717 -79.7306 11° North 472 543 30,700 -1,020 Descending Cleveland Center
05:34PM 40.8992 -79.6975 11° North 471 542 29,700 -960 Descending Cleveland Center
05:35PM 41.0286 -79.6636 11° North 472 543 28,800 -960 Descending Cleveland Center
05:36PM 41.1586 -79.6289 11° North 475 547 27,800 -960 Descending Cleveland Center
05:37PM 41.2886 -79.5936 12° North 476 548 26,800 -1,440 Descending Cleveland Center
05:38PM 41.4394 -79.5544 11° North 481 554 24,900 -1,380 Descending Cleveland Center
05:39PM 41.5633 -79.5217 11° North 477 549 24,000 -540 Descending Cleveland Center
05:40PM 41.7128 -79.4814 11° North 461 531 23,900 -660 Descending Cleveland Center
05:41PM 41.8375 -79.4478 11° North 460 529 22,700 -1,500 Descending Cleveland Center
05:42PM 41.9561 -79.4175 11° North 440 506 20,900 -1,980 Descending Cleveland Center
05:44PM 42.1933 -79.3528 11° North 435 501 16,600 -2,220 Descending Cleveland Center
05:45PM 42.3283 -79.3169 11° North 414 476 14,000 -2,400 Descending Cleveland Center
05:46PM 42.4347 -79.2878 11° North 392 451 11,700 -1,860 Descending Cleveland Center
05:47PM 42.5406 -79.2500 15° North 366 421 10,200 -1,200 Descending Cleveland Center
05:48PM 42.6244 -79.2047 22° Northeast 322 371 9,300 -1,260 Descending Cleveland Center
05:50PM 42.7067 -79.1614 21° North 308 354 7,600 -1,620 Descending Cleveland Center
05:51PM 42.7831 -79.1069 28° Northeast 302 348 6,000 -1,500 Descending Cleveland Center
05:52PM 42.8578 -79.0483 30° Northeast 298 343 4,600 -1,320 Descending Cleveland Center
05:53PM 42.9222 -78.9928 32° Northeast 290 334 3,300 -960 Descending Cleveland Center
05:54PM 42.9856 -78.9392 32° Northeast 263 303 2,700 -480 Descending Cleveland Center
05:55PM 43.0294 -78.8842 42° Northeast 215 247 2,400 -360 Descending Cleveland Center
05:56PM 43.0750 -78.8489 29° Northeast 192 221 2,000 -480 Descending Cleveland Center
05:57PM 43.1169 -78.8750 336° Northwest 188 216 1,500 -540 Descending Cleveland Center
05:59PM 43.1000 -78.9333 251° West  Level FlightAware Approximate
06:06PM 43.1076 -78.9458 251° West  Level Estimated